Time,TemperatureF,DewpointF,PressureIn,WindDirection,WindDirectionDegrees,WindSpeedMPH,WindSpeedGustMPH,Humidity,HourlyPrecipIn,Conditions,Clouds,dailyrainin,SolarRadiationWatts/m^2,SoftwareType,DateUTC
2013-11-01 03:23:00,44.0,-11.0,-100.00,West,276,0.0,3.0,9,0.00,,,-99.99,0.000000,,2013-11-01 10:23:00,
2013-11-01 03:33:00,44.0,-11.0,-100.00,West,276,0.0,3.0,9,0.00,,,-99.99,0.000000,,2013-11-01 10:33:00,
2013-11-01 04:12:00,44.0,-4.0,-100.00,West,259,1.0,3.0,13,0.00,,,-99.99,0.000000,,2013-11-01 11:12:00,
2013-11-01 04:21:00,44.0,-4.0,-100.00,West,259,1.0,3.0,13,0.00,,,-99.99,0.000000,,2013-11-01 11:21:00,
2013-11-01 04:33:00,44.0,-4.0,-100.00,West,259,1.0,3.0,13,0.00,,,-99.99,0.000000,,2013-11-01 11:33:00,
2013-11-01 05:12:00,44.0,2.0,-100.00,NW,304,0.0,4.0,17,0.00,,,-99.99,0.000000,,2013-11-01 12:12:00,
2013-11-01 05:22:00,44.0,2.0,-100.00,NW,304,0.0,4.0,17,0.00,,,-99.99,0.000000,,2013-11-01 12:22:00,
2013-11-01 05:32:00,44.0,2.0,-100.00,NW,304,0.0,4.0,17,0.00,,,-99.99,0.000000,,2013-11-01 12:32:00,
2013-11-01 06:12:00,45.0,12.0,-100.00,West,272,2.0,6.0,26,0.00,,,-99.99,0.000000,,2013-11-01 13:12:00,
2013-11-01 06:22:00,45.0,12.0,-100.00,West,272,2.0,6.0,26,0.00,,,-99.99,0.000000,,2013-11-01 13:22:00,
2013-11-01 06:32:00,45.0,12.0,-100.00,West,272,2.0,6.0,26,0.00,,,-99.99,0.000000,,2013-11-01 13:32:00,
2013-11-01 07:11:00,43.0,7.0,-100.00,East,80,1.0,7.0,22,0.00,,,-99.99,0.000000,,2013-11-01 14:11:00,
2013-11-01 07:21:00,43.0,7.0,-100.00,East,80,1.0,7.0,22,0.00,,,-99.99,0.000000,,2013-11-01 14:21:00,
2013-11-01 07:32:00,43.0,7.0,-100.00,East,80,1.0,7.0,22,0.00,,,-99.99,0.000000,,2013-11-01 14:32:00,
2013-11-01 08:11:00,50.0,16.0,-100.00,NNE,25,4.0,9.0,26,0.00,,,-99.99,92.000000,,2013-11-01 15:11:00,
2013-11-01 08:21:00,50.0,16.0,-100.00,NNE,25,4.0,9.0,26,0.00,,,-99.99,92.000000,,2013-11-01 15:21:00,
2013-11-01 08:33:00,50.0,16.0,-100.00,NNE,25,4.0,9.0,26,0.00,,,-99.99,92.000000,,2013-11-01 15:33:00,
2013-11-01 09:12:00,56.0,20.0,-100.00,North,2,3.0,13.0,24,0.00,,,0.00,359.000000,,2013-11-01 16:12:00,
2013-11-01 09:23:00,56.0,20.0,-100.00,North,2,3.0,13.0,24,0.00,,,0.00,359.000000,,2013-11-01 16:23:00,
2013-11-01 09:32:00,56.0,20.0,-100.00,North,2,3.0,13.0,24,0.00,,,0.00,359.000000,,2013-11-01 16:32:00,
2013-11-01 10:12:00,60.0,19.0,-100.00,NNW,341,3.0,10.0,20,0.00,,,-99.99,605.000000,,2013-11-01 17:12:00,
2013-11-01 10:22:00,60.0,19.0,-100.00,NNW,341,3.0,10.0,20,0.00,,,-99.99,605.000000,,2013-11-01 17:22:00,
2013-11-01 10:33:00,60.0,19.0,-100.00,NNW,341,3.0,10.0,20,0.00,,,-99.99,605.000000,,2013-11-01 17:33:00,
2013-11-01 11:22:00,61.0,21.0,-100.00,SSE,147,3.0,7.0,21,0.00,,,0.00,799.000000,,2013-11-01 18:22:00,
2013-11-01 11:32:00,61.0,21.0,-100.00,SSE,147,3.0,7.0,21,0.00,,,0.00,799.000000,,2013-11-01 18:32:00,
2013-11-01 12:12:00,62.0,23.0,-100.00,SSE,151,3.0,9.0,22,0.00,,,0.00,924.000000,,2013-11-01 19:12:00,
2013-11-01 12:21:00,62.0,23.0,-100.00,SSE,151,3.0,9.0,22,0.00,,,0.00,924.000000,,2013-11-01 19:21:00,
2013-11-01 12:32:00,62.0,23.0,-100.00,SSE,151,3.0,9.0,22,0.00,,,0.00,924.000000,,2013-11-01 19:32:00,
2013-11-01 13:12:00,62.0,24.0,-100.00,South,170,4.0,10.0,23,0.00,,,0.00,965.000000,,2013-11-01 20:12:00,
2013-11-01 13:22:00,62.0,24.0,-100.00,South,170,4.0,10.0,23,0.00,,,0.00,965.000000,,2013-11-01 20:22:00,
2013-11-01 13:32:00,62.0,24.0,-100.00,South,170,4.0,10.0,23,0.00,,,0.00,965.000000,,2013-11-01 20:32:00,
2013-11-01 14:11:00,63.0,22.0,-100.00,SE,143,4.0,9.0,21,0.00,,,0.00,929.000000,,2013-11-01 21:11:00,
2013-11-01 14:21:00,63.0,22.0,-100.00,SE,143,4.0,9.0,21,0.00,,,0.00,929.000000,,2013-11-01 21:21:00,
2013-11-01 14:34:00,63.0,22.0,-100.00,SE,143,4.0,9.0,21,0.00,,,0.00,929.000000,,2013-11-01 21:34:00,
2013-11-01 15:13:00,65.0,24.0,-100.00,SE,138,3.0,9.0,21,0.00,,,0.00,808.000000,,2013-11-01 22:13:00,
2013-11-01 15:24:00,65.0,24.0,-100.00,SE,138,3.0,9.0,21,0.00,,,0.00,808.000000,,2013-11-01 22:24:00,
2013-11-01 15:33:00,65.0,24.0,-100.00,SE,138,3.0,9.0,21,0.00,,,0.00,808.000000,,2013-11-01 22:33:00,
2013-11-01 16:12:00,63.0,22.0,-100.00,ESE,109,2.0,7.0,21,0.00,,,0.00,616.000000,,2013-11-01 23:12:00,
2013-11-01 16:22:00,63.0,22.0,-100.00,ESE,109,2.0,7.0,21,0.00,,,0.00,616.000000,,2013-11-01 23:22:00,
2013-11-01 16:34:00,63.0,22.0,-100.00,ESE,109,2.0,7.0,21,0.00,,,0.00,616.000000,,2013-11-01 23:34:00,
2013-11-01 17:11:00,60.0,21.0,-100.00,SSE,151,1.0,6.0,22,0.00,,,0.00,374.000000,,2013-11-02 00:11:00,
2013-11-01 17:21:00,60.0,21.0,-100.00,SSE,151,1.0,6.0,22,0.00,,,0.00,374.000000,,2013-11-02 00:21:00,
2013-11-01 17:32:00,60.0,21.0,-100.00,SSE,151,1.0,6.0,22,0.00,,,0.00,374.000000,,2013-11-02 00:32:00,
2013-11-01 18:11:00,51.0,15.0,-100.00,NE,40,4.0,6.0,23,0.00,,,0.00,83.000000,,2013-11-02 01:11:00,
2013-11-01 18:21:00,51.0,15.0,-100.00,NE,40,4.0,6.0,23,0.00,,,0.00,83.000000,,2013-11-02 01:21:00,
2013-11-01 18:32:00,51.0,15.0,-100.00,NE,40,4.0,6.0,23,0.00,,,0.00,83.000000,,2013-11-02 01:32:00,
2013-11-01 20:11:00,50.0,4.0,-100.00,NE,47,8.0,12.0,15,0.00,,,0.00,0.000000,,2013-11-02 03:11:00,
2013-11-01 20:21:00,50.0,4.0,-100.00,NE,47,8.0,12.0,15,0.00,,,0.00,0.000000,,2013-11-02 03:21:00,
2013-11-01 20:34:00,50.0,4.0,-100.00,NE,47,8.0,12.0,15,0.00,,,0.00,0.000000,,2013-11-02 03:34:00,
2013-11-01 21:13:00,50.0,-4.0,-100.00,ENE,57,7.0,14.0,10,0.00,,,0.00,0.000000,,2013-11-02 04:13:00,
2013-11-01 22:13:00,50.0,6.0,-100.00,ENE,57,8.0,14.0,16,0.00,,,0.00,0.000000,,2013-11-02 05:13:00,
2013-11-01 22:22:00,50.0,6.0,-100.00,ENE,57,8.0,14.0,16,0.00,,,0.00,0.000000,,2013-11-02 05:22:00,
2013-11-01 22:34:00,50.0,6.0,-100.00,ENE,57,8.0,14.0,16,0.00,,,0.00,0.000000,,2013-11-02 05:34:00,
2013-11-01 23:12:00,51.0,5.0,-100.00,NE,54,12.0,18.0,15,0.00,,,0.00,0.000000,,2013-11-02 06:12:00,
2013-11-01 23:22:00,51.0,5.0,-100.00,NE,54,12.0,18.0,15,0.00,,,0.00,0.000000,,2013-11-02 06:22:00,
2013-11-01 23:32:00,51.0,5.0,-100.00,NE,54,12.0,18.0,15,0.00,,,0.00,0.000000,,2013-11-02 06:32:00,